createdAt,value
2018-06-03T00:00:15.329Z,17.00
2018-06-03T00:00:49.215Z,17.00
2018-06-03T00:01:23.437Z,17.00
2018-06-03T00:01:56.901Z,17.00
2018-06-03T00:02:31.142Z,16.90
2018-06-03T00:03:04.613Z,16.90
2018-06-03T00:03:37.746Z,16.90
2018-06-03T00:04:11.243Z,16.90
2018-06-03T00:04:45.480Z,16.90
2018-06-03T00:05:18.978Z,16.90
2018-06-03T00:05:52.640Z,16.90
2018-06-03T00:06:27.003Z,16.90
2018-06-03T00:07:01.243Z,16.90
2018-06-03T00:07:34.703Z,16.90
2018-06-03T00:08:08.181Z,16.90
2018-06-03T00:08:41.637Z,16.80
2018-06-03T00:09:15.154Z,16.80
2018-06-03T00:09:48.729Z,16.80
2018-06-03T00:10:22.409Z,16.80
2018-06-03T00:10:55.861Z,16.80
2018-06-03T00:11:29.349Z,16.80
2018-06-03T00:12:02.819Z,16.70
2018-06-03T00:12:36.287Z,16.70
2018-06-03T00:13:10.520Z,16.70
2018-06-03T00:13:43.989Z,16.70
2018-06-03T00:14:17.475Z,16.70
2018-06-03T00:14:50.935Z,16.70
2018-06-03T00:15:25.177Z,16.70
2018-06-03T00:15:58.633Z,16.70
2018-06-03T00:16:32.915Z,16.70
2018-06-03T00:17:06.505Z,16.70
2018-06-03T00:17:43.028Z,16.70
2018-06-03T00:18:16.496Z,16.70
2018-06-03T00:18:49.979Z,16.60
2018-06-03T00:19:23.480Z,16.60
2018-06-03T00:19:56.937Z,16.60
2018-06-03T00:22:33.883Z,16.60
2018-06-03T00:23:40.335Z,16.60
2018-06-03T00:24:13.593Z,16.60
2018-06-03T00:24:46.871Z,16.60
2018-06-03T00:25:20.155Z,16.60
2018-06-03T00:25:53.455Z,16.60
2018-06-03T00:26:26.719Z,16.60
2018-06-03T00:27:00.023Z,16.60
2018-06-03T00:27:33.685Z,16.60
2018-06-03T00:28:07.043Z,16.60
2018-06-03T00:28:40.327Z,16.60
2018-06-03T00:29:13.629Z,16.60
2018-06-03T00:29:46.989Z,16.60
2018-06-03T00:30:20.331Z,16.50
2018-06-03T00:30:53.744Z,16.50
2018-06-03T00:31:27.049Z,16.50
2018-06-03T00:32:00.353Z,16.50
2018-06-03T00:32:33.733Z,16.50
2018-06-03T00:33:07.072Z,16.50
2018-06-03T00:33:40.382Z,16.50
2018-06-03T00:34:13.680Z,16.50
2018-06-03T00:34:47.008Z,16.50
2018-06-03T00:35:20.629Z,16.50
2018-06-03T00:36:05.510Z,16.50
2018-06-03T00:36:46.427Z,16.50
2018-06-03T00:37:19.757Z,16.50
2018-06-03T00:37:53.283Z,16.50
2018-06-03T00:38:26.591Z,16.50
2018-06-03T00:38:59.939Z,16.50
2018-06-03T00:39:33.219Z,16.40
2018-06-03T00:40:06.698Z,16.40
2018-06-03T00:40:40.044Z,16.40
2018-06-03T00:41:13.497Z,16.40
2018-06-03T00:41:46.807Z,16.40
2018-06-03T00:42:20.456Z,16.40
2018-06-03T00:42:53.750Z,16.40
2018-06-03T00:43:27.047Z,16.40
2018-06-03T00:44:00.328Z,16.40
2018-06-03T00:44:33.891Z,16.40
2018-06-03T00:45:07.196Z,16.30
2018-06-03T00:45:40.516Z,16.30
2018-06-03T00:46:13.820Z,16.30
2018-06-03T00:46:47.151Z,16.30
2018-06-03T00:47:20.457Z,16.30
2018-06-03T00:47:53.736Z,16.30
2018-06-03T00:48:27.011Z,16.30
2018-06-03T00:49:00.295Z,16.30
2018-06-03T00:49:33.605Z,16.30
2018-06-03T00:50:06.898Z,16.30
2018-06-03T00:50:40.226Z,16.30
2018-06-03T00:51:13.521Z,16.30
2018-06-03T00:51:46.780Z,16.30
2018-06-03T00:52:20.082Z,16.30
2018-06-03T00:52:53.395Z,16.30
2018-06-03T00:53:26.670Z,16.30
2018-06-03T00:53:59.950Z,16.30
2018-06-03T00:54:33.557Z,16.30
2018-06-03T00:55:13.965Z,16.30
2018-06-03T00:55:47.282Z,16.30
2018-06-03T00:56:32.130Z,16.30
2018-06-03T00:57:11.162Z,16.30
2018-06-03T00:57:44.493Z,16.30
2018-06-03T00:58:17.797Z,16.30
2018-06-03T00:58:51.097Z,16.20
2018-06-03T00:59:24.438Z,16.30
2018-06-03T00:59:57.716Z,16.20
2018-06-03T01:00:31.014Z,16.20
2018-06-03T01:01:04.410Z,16.30
2018-06-03T01:01:37.709Z,16.20
2018-06-03T01:02:10.990Z,16.20
2018-06-03T01:02:44.916Z,16.20
2018-06-03T01:03:51.328Z,16.20
2018-06-03T01:04:24.642Z,16.20
2018-06-03T01:04:57.952Z,16.20
2018-06-03T01:05:31.262Z,16.20
2018-06-03T01:06:04.600Z,16.20
2018-06-03T01:07:10.932Z,16.20
2018-06-03T01:07:44.229Z,16.20
2018-06-03T01:08:50.635Z,16.20
2018-06-03T01:09:23.987Z,16.20
2018-06-03T01:09:57.255Z,16.20
2018-06-03T01:10:30.549Z,16.20
2018-06-03T01:11:03.804Z,16.20
2018-06-03T01:11:37.093Z,16.20
2018-06-03T01:12:10.372Z,16.20
2018-06-03T01:12:43.672Z,16.20
2018-06-03T01:13:16.972Z,16.20
2018-06-03T01:13:50.251Z,16.10
2018-06-03T01:14:23.557Z,16.10
2018-06-03T01:14:57.183Z,16.10
2018-06-03T01:16:03.505Z,16.10
2018-06-03T01:16:36.797Z,16.10
2018-06-03T01:17:10.078Z,16.10
2018-06-03T01:17:43.359Z,16.10
2018-06-03T01:18:16.695Z,16.10
2018-06-03T01:18:49.979Z,16.10
2018-06-03T01:19:23.307Z,16.10
2018-06-03T01:19:56.617Z,16.10
2018-06-03T01:20:29.903Z,16.10
2018-06-03T01:21:03.203Z,16.00
2018-06-03T01:21:36.481Z,16.00
2018-06-03T01:22:09.810Z,16.00
2018-06-03T01:22:43.127Z,16.00
2018-06-03T01:23:16.383Z,16.00
2018-06-03T01:23:49.653Z,16.00
2018-06-03T01:24:22.964Z,16.00
2018-06-03T01:24:56.221Z,16.00
2018-06-03T01:25:29.521Z,16.00
2018-06-03T01:26:02.807Z,16.00
2018-06-03T01:26:36.061Z,16.00
2018-06-03T01:27:10.079Z,16.00
2018-06-03T01:27:43.381Z,16.00
2018-06-03T01:28:16.639Z,16.00
2018-06-03T01:28:49.927Z,16.00
2018-06-03T01:29:23.211Z,16.00
2018-06-03T01:29:56.487Z,16.00
2018-06-03T01:30:29.790Z,16.00
2018-06-03T01:31:03.074Z,16.00
2018-06-03T01:31:36.709Z,15.90
2018-06-03T01:32:10.020Z,16.00
2018-06-03T01:32:43.369Z,15.90
2018-06-03T01:33:16.676Z,16.00
2018-06-03T01:34:23.032Z,15.90
2018-06-03T01:34:56.301Z,15.90
2018-06-03T01:35:29.614Z,15.90
2018-06-03T01:36:02.906Z,15.90
2018-06-03T01:36:36.169Z,15.90
2018-06-03T01:37:09.437Z,15.90
2018-06-03T01:37:43.043Z,15.90
2018-06-03T01:38:16.329Z,15.90
2018-06-03T01:38:49.609Z,15.90
2018-06-03T01:39:22.885Z,15.90
2018-06-03T01:39:56.155Z,15.90
2018-06-03T01:40:29.456Z,15.90
2018-06-03T01:41:02.718Z,15.90
2018-06-03T01:41:36.093Z,15.90
2018-06-03T01:42:09.382Z,15.90
2018-06-03T01:42:42.697Z,15.90
2018-06-03T01:43:16.016Z,15.90
2018-06-03T01:43:49.280Z,15.90
2018-06-03T01:44:22.554Z,15.90
2018-06-03T01:44:55.873Z,15.90
2018-06-03T01:45:29.223Z,15.90
2018-06-03T01:46:02.864Z,15.90
2018-06-03T01:46:36.132Z,15.90
2018-06-03T01:47:09.424Z,15.90
2018-06-03T01:47:42.702Z,15.90
2018-06-03T01:48:16.030Z,15.90
2018-06-03T01:48:49.344Z,15.90
2018-06-03T01:49:22.643Z,16.00
2018-06-03T01:49:55.928Z,16.00
2018-06-03T01:50:29.259Z,16.00
2018-06-03T01:51:02.536Z,16.00
2018-06-03T01:51:35.821Z,16.00
2018-06-03T01:52:09.096Z,16.00
2018-06-03T01:52:42.358Z,16.10
2018-06-03T01:53:15.647Z,16.10
2018-06-03T01:53:48.959Z,16.10
2018-06-03T01:54:22.240Z,16.10
2018-06-03T01:54:55.518Z,16.10
2018-06-03T01:55:29.122Z,16.20
2018-06-03T01:56:02.426Z,16.20
2018-06-03T01:56:35.736Z,16.20
2018-06-03T01:57:09.048Z,16.20
2018-06-03T01:57:42.347Z,16.20
2018-06-03T01:58:15.646Z,16.20
2018-06-03T01:58:49.045Z,16.30
2018-06-03T01:59:22.512Z,16.30
2018-06-03T01:59:55.858Z,16.30
2018-06-03T02:00:29.179Z,16.30
2018-06-03T02:01:02.492Z,16.30
2018-06-03T02:01:35.790Z,16.30
2018-06-03T02:02:09.070Z,16.30
2018-06-03T02:02:42.393Z,16.30
2018-06-03T02:03:15.680Z,16.30
2018-06-03T02:03:49.054Z,16.30
2018-06-03T02:04:22.355Z,16.30
2018-06-03T02:04:55.634Z,16.30
2018-06-03T02:05:29.255Z,16.30
2018-06-03T02:06:02.534Z,16.30
2018-06-03T02:06:35.783Z,16.30
2018-06-03T02:07:09.058Z,16.30
2018-06-03T02:07:42.382Z,16.30
2018-06-03T02:08:15.683Z,16.20
2018-06-03T02:08:49.016Z,16.30
2018-06-03T02:09:22.344Z,16.30
2018-06-03T02:09:55.636Z,16.30
2018-06-03T02:10:29.278Z,16.30
2018-06-03T02:11:02.560Z,16.30
2018-06-03T02:11:35.848Z,16.30
2018-06-03T02:12:09.178Z,16.30
2018-06-03T02:12:42.468Z,16.30
2018-06-03T02:13:15.746Z,16.30
2018-06-03T02:15:25.576Z,16.20
2018-06-03T02:15:58.885Z,16.20
2018-06-03T02:16:32.166Z,16.20
2018-06-03T02:17:05.960Z,16.20
2018-06-03T02:17:39.282Z,16.20
2018-06-03T02:18:12.558Z,16.20
2018-06-03T02:18:45.846Z,16.20
2018-06-03T02:19:19.186Z,16.20
2018-06-03T02:19:52.496Z,16.20
2018-06-03T02:20:26.506Z,16.20
2018-06-03T02:20:59.801Z,16.20
2018-06-03T02:21:33.128Z,16.20
2018-06-03T02:22:06.430Z,16.20
2018-06-03T02:22:39.730Z,16.20
2018-06-03T02:23:12.988Z,16.20
2018-06-03T02:23:46.400Z,16.20
2018-06-03T02:24:19.704Z,16.20
2018-06-03T02:24:53.032Z,16.20
2018-06-03T02:25:26.317Z,16.20
2018-06-03T02:25:59.650Z,16.20
2018-06-03T02:26:32.952Z,16.20
2018-06-03T02:27:06.248Z,16.20
2018-06-03T02:27:39.580Z,16.20
2018-06-03T02:28:12.850Z,16.20
2018-06-03T02:28:46.130Z,16.20
2018-06-03T02:29:19.478Z,16.10
2018-06-03T02:29:52.765Z,16.10
2018-06-03T02:30:26.048Z,16.10
2018-06-03T02:30:59.364Z,16.10
2018-06-03T02:31:32.666Z,16.10
2018-06-03T02:32:06.574Z,16.10
2018-06-03T02:32:39.888Z,16.20
2018-06-03T02:33:13.184Z,16.10
2018-06-03T02:33:46.482Z,16.10
2018-06-03T02:34:19.794Z,16.10
2018-06-03T02:34:53.074Z,16.10
2018-06-03T02:35:26.603Z,16.10
2018-06-03T02:35:59.929Z,16.20
2018-06-03T02:36:33.200Z,16.10
2018-06-03T02:37:06.510Z,16.10
2018-06-03T02:37:39.840Z,16.20
2018-06-03T02:38:13.148Z,16.20
2018-06-03T02:38:46.756Z,16.10
2018-06-03T02:39:20.076Z,16.20
2018-06-03T02:39:53.366Z,16.20
2018-06-03T02:40:26.655Z,16.20
2018-06-03T02:40:59.980Z,16.20
2018-06-03T02:41:33.277Z,16.20
2018-06-03T02:42:06.591Z,16.20
2018-06-03T02:42:39.854Z,16.20
2018-06-03T02:43:13.176Z,16.20
2018-06-03T02:43:46.814Z,16.20
2018-06-03T02:44:20.111Z,16.30
2018-06-03T02:44:53.458Z,16.30
2018-06-03T02:45:26.761Z,16.30
2018-06-03T02:46:00.049Z,16.30
2018-06-03T02:46:33.323Z,16.30
2018-06-03T02:47:06.665Z,16.30
2018-06-03T02:47:40.044Z,16.30
2018-06-03T02:48:13.343Z,16.30
2018-06-03T02:48:46.619Z,16.30
2018-06-03T02:49:19.892Z,16.30
2018-06-03T02:49:53.211Z,16.30
2018-06-03T02:50:26.618Z,16.30
2018-06-03T02:51:32.946Z,16.30
2018-06-03T02:52:06.248Z,16.30
2018-06-03T02:52:39.530Z,16.30
2018-06-03T02:53:12.818Z,16.30
2018-06-03T02:53:46.121Z,16.30
2018-06-03T02:54:19.438Z,16.30
2018-06-03T02:54:52.748Z,16.30
2018-06-03T02:55:26.062Z,16.30
2018-06-03T02:55:59.350Z,16.30
2018-06-03T02:56:32.626Z,16.30
2018-06-03T02:57:05.906Z,16.30
2018-06-03T02:57:39.202Z,16.40
2018-06-03T02:58:12.515Z,16.40
2018-06-03T02:58:45.812Z,16.30
2018-06-03T02:59:19.112Z,16.40
2018-06-03T02:59:52.391Z,16.40
2018-06-03T03:00:26.018Z,16.40
2018-06-03T03:00:59.306Z,16.40
2018-06-03T03:01:32.596Z,16.40
2018-06-03T03:02:05.905Z,16.40
2018-06-03T03:02:39.259Z,16.40
2018-06-03T03:03:12.553Z,16.40
2018-06-03T03:03:45.862Z,16.50
2018-06-03T03:04:19.158Z,16.50
2018-06-03T03:04:52.442Z,16.40
2018-06-03T03:05:26.094Z,16.50
2018-06-03T03:05:59.374Z,16.50
2018-06-03T03:06:32.674Z,16.50
2018-06-03T03:07:05.976Z,16.50
2018-06-03T03:07:39.358Z,16.50
2018-06-03T03:08:12.738Z,16.50
2018-06-03T03:08:46.055Z,16.50
2018-06-03T03:09:19.357Z,16.50
2018-06-03T03:09:52.682Z,16.50
2018-06-03T03:10:26.028Z,16.60
2018-06-03T03:10:59.655Z,16.60
2018-06-03T03:11:32.930Z,16.60
2018-06-03T03:12:06.230Z,16.60
2018-06-03T03:12:39.528Z,16.60
2018-06-03T03:13:12.835Z,16.60
2018-06-03T03:14:19.232Z,16.70
2018-06-03T03:14:52.578Z,16.70
2018-06-03T03:15:25.892Z,16.70
2018-06-03T03:15:59.176Z,16.70
2018-06-03T03:16:32.783Z,16.70
2018-06-03T03:17:06.106Z,16.70
2018-06-03T03:17:39.406Z,16.70
2018-06-03T03:18:12.683Z,16.70
2018-06-03T03:18:46.008Z,16.70
2018-06-03T03:19:19.300Z,16.70
2018-06-03T03:19:52.596Z,16.70
2018-06-03T03:20:25.928Z,16.70
2018-06-03T03:20:59.224Z,16.70
2018-06-03T03:21:32.510Z,16.70
2018-06-03T03:22:05.810Z,16.70
2018-06-03T03:22:39.096Z,16.70
2018-06-03T03:23:12.394Z,16.70
2018-06-03T03:23:45.680Z,16.70
2018-06-03T03:24:18.968Z,16.70
2018-06-03T03:24:52.234Z,16.70
2018-06-03T03:25:58.622Z,16.70
2018-06-03T03:26:31.954Z,16.80
2018-06-03T03:27:05.288Z,16.80
2018-06-03T03:27:38.557Z,16.80
2018-06-03T03:28:11.856Z,16.80
2018-06-03T03:28:45.160Z,16.80
2018-06-03T03:29:18.434Z,16.80
2018-06-03T03:29:51.710Z,16.80
2018-06-03T03:30:25.324Z,16.80
2018-06-03T03:30:58.636Z,16.80
2018-06-03T03:31:31.943Z,16.80
2018-06-03T03:32:05.252Z,16.80
2018-06-03T03:32:38.606Z,16.80
2018-06-03T03:33:11.887Z,16.80
2018-06-03T03:33:45.166Z,16.80
2018-06-03T03:34:18.456Z,16.90
2018-06-03T03:34:51.756Z,16.90
2018-06-03T03:35:25.056Z,16.90
2018-06-03T03:35:58.358Z,16.90
2018-06-03T03:36:31.651Z,16.90
2018-06-03T03:37:04.923Z,16.90
2018-06-03T03:37:38.521Z,16.90
2018-06-03T03:38:11.805Z,16.90
2018-06-03T03:38:45.458Z,16.90
2018-06-03T03:39:18.728Z,16.90
2018-06-03T03:39:51.992Z,16.90
2018-06-03T03:40:25.295Z,16.90
2018-06-03T03:40:58.614Z,17.00
2018-06-03T03:41:31.895Z,17.00
2018-06-03T03:42:05.204Z,17.00
2018-06-03T03:42:38.532Z,17.00
2018-06-03T03:43:45.027Z,17.00
2018-06-03T03:44:18.297Z,17.00
2018-06-03T03:44:51.593Z,17.00
2018-06-03T03:45:24.860Z,17.10
2018-06-03T03:45:58.165Z,17.00
2018-06-03T03:46:31.438Z,17.10
2018-06-03T03:47:04.821Z,17.10
2018-06-03T03:47:38.134Z,17.10
2018-06-03T03:48:11.411Z,17.10
2018-06-03T03:48:44.688Z,17.10
2018-06-03T03:49:18.004Z,17.10
2018-06-03T03:49:51.524Z,17.10
2018-06-03T03:50:24.820Z,17.10
2018-06-03T03:50:58.110Z,17.10
2018-06-03T03:51:31.418Z,17.20
2018-06-03T03:52:38.163Z,17.20
2018-06-03T03:53:11.481Z,17.20
2018-06-03T03:53:44.818Z,17.20
2018-06-03T03:54:18.101Z,17.20
2018-06-03T03:54:51.405Z,17.20
2018-06-03T03:55:24.703Z,17.20
2018-06-03T03:56:31.589Z,17.20
2018-06-03T03:57:05.026Z,17.20
2018-06-03T03:57:38.384Z,17.20
2018-06-03T03:58:11.695Z,17.20
2018-06-03T03:58:45.033Z,17.20
2018-06-03T03:59:18.359Z,17.20
2018-06-03T03:59:51.678Z,17.20
2018-06-03T04:00:24.974Z,17.20
2018-06-03T04:00:58.285Z,17.20
2018-06-03T04:01:31.652Z,17.20
2018-06-03T04:02:05.297Z,17.20
2018-06-03T04:02:38.574Z,17.30
2018-06-03T04:03:11.866Z,17.30
2018-06-03T04:03:45.185Z,17.30
2018-06-03T04:04:18.478Z,17.30
2018-06-03T04:04:51.794Z,17.30
2018-06-03T04:05:25.110Z,17.30
2018-06-03T04:05:58.422Z,17.30
2018-06-03T04:06:31.728Z,17.30
2018-06-03T04:07:38.100Z,17.40
2018-06-03T04:08:11.408Z,17.40
2018-06-03T04:08:44.718Z,17.40
2018-06-03T04:09:18.027Z,17.40
2018-06-03T04:09:51.304Z,17.40
2018-06-03T04:10:24.950Z,17.40
2018-06-03T04:10:58.232Z,17.40
2018-06-03T04:11:31.528Z,17.50
2018-06-03T04:12:05.171Z,17.50
2018-06-03T04:12:38.458Z,17.50
2018-06-03T04:13:11.806Z,17.50
2018-06-03T04:13:45.602Z,17.50
2018-06-03T04:14:18.906Z,17.50
2018-06-03T04:14:52.538Z,17.50
2018-06-03T04:15:25.820Z,17.50
2018-06-03T04:15:59.096Z,17.50
2018-06-03T04:16:32.424Z,17.60
2018-06-03T04:17:06.072Z,17.60
2018-06-03T04:17:39.381Z,17.60
2018-06-03T04:18:12.665Z,17.60
2018-06-03T04:18:46.012Z,17.60
2018-06-03T04:19:19.302Z,17.60
2018-06-03T04:19:52.637Z,17.60
2018-06-03T04:20:25.997Z,17.60
2018-06-03T04:21:32.412Z,17.60
2018-06-03T04:22:05.719Z,17.60
2018-06-03T04:22:39.012Z,17.60
2018-06-03T04:23:12.298Z,17.60
2018-06-03T04:24:18.660Z,17.60
2018-06-03T04:24:51.955Z,17.60
2018-06-03T04:25:25.428Z,17.60
2018-06-03T04:25:58.738Z,17.60
2018-06-03T04:26:32.017Z,17.60
2018-06-03T04:27:05.297Z,17.60
2018-06-03T04:27:38.912Z,17.60
2018-06-03T04:28:12.210Z,17.60
2018-06-03T04:28:45.484Z,17.60
2018-06-03T04:29:18.802Z,17.60
2018-06-03T04:29:52.107Z,17.60
2018-06-03T04:30:25.390Z,17.60
2018-06-03T04:30:58.694Z,17.60
2018-06-03T04:31:31.998Z,17.60
2018-06-03T04:32:06.012Z,17.60
2018-06-03T04:32:39.296Z,17.60
2018-06-03T04:33:12.573Z,17.60
2018-06-03T04:33:45.866Z,17.60
2018-06-03T04:34:19.168Z,17.70
2018-06-03T04:34:52.446Z,17.70
2018-06-03T04:35:26.050Z,17.70
2018-06-03T04:35:59.330Z,17.70
2018-06-03T04:36:32.630Z,17.70
2018-06-03T04:37:05.945Z,17.70
2018-06-03T04:37:39.265Z,17.70
2018-06-03T04:38:12.549Z,17.70
2018-06-03T04:38:45.843Z,17.80
2018-06-03T04:39:19.151Z,17.80
2018-06-03T04:39:52.459Z,17.80
2018-06-03T04:40:25.708Z,17.80
2018-06-03T04:40:59.006Z,17.80
2018-06-03T04:41:32.290Z,17.90
2018-06-03T04:42:05.976Z,17.80
2018-06-03T04:42:39.294Z,17.80
2018-06-03T04:43:12.618Z,17.90
2018-06-03T04:43:45.898Z,17.90
2018-06-03T04:44:19.184Z,17.90
2018-06-03T04:44:52.482Z,17.90
2018-06-03T04:45:25.762Z,18.00
2018-06-03T04:45:59.078Z,18.00
2018-06-03T04:46:32.380Z,18.00
2018-06-03T04:47:05.919Z,18.00
2018-06-03T04:47:39.226Z,18.10
2018-06-03T04:48:12.515Z,18.10
2018-06-03T04:48:46.184Z,18.10
2018-06-03T04:49:19.679Z,18.10
2018-06-03T04:49:52.958Z,18.20
2018-06-03T04:50:26.374Z,18.20
2018-06-03T04:50:59.979Z,18.20
2018-06-03T04:51:33.276Z,18.20
2018-06-03T04:52:06.598Z,18.20
2018-06-03T04:52:39.907Z,18.20
2018-06-03T04:53:13.202Z,18.20
2018-06-03T04:53:46.482Z,18.20
2018-06-03T04:54:19.771Z,18.20
2018-06-03T04:54:53.076Z,18.20
2018-06-03T04:55:26.345Z,18.20
2018-06-03T04:55:59.615Z,18.20
2018-06-03T04:56:32.896Z,18.20
2018-06-03T04:57:06.361Z,18.20
2018-06-03T04:57:40.021Z,18.30
2018-06-03T04:58:13.343Z,18.30
2018-06-03T04:58:46.633Z,18.30
2018-06-03T04:59:19.937Z,18.30
2018-06-03T04:59:53.220Z,18.30
2018-06-03T05:00:26.549Z,18.30
2018-06-03T05:00:59.905Z,18.30
2018-06-03T05:01:33.245Z,18.30
2018-06-03T05:02:06.674Z,18.30
2018-06-03T05:02:39.974Z,18.30
2018-06-03T05:03:13.248Z,18.30
2018-06-03T05:03:46.563Z,18.30
2018-06-03T05:04:19.843Z,18.40
2018-06-03T05:04:59.891Z,18.40
2018-06-03T05:05:33.169Z,18.40
2018-06-03T05:06:06.441Z,18.40
2018-06-03T05:06:39.786Z,18.40
2018-06-03T05:07:13.236Z,18.40
2018-06-03T05:07:46.514Z,18.40
2018-06-03T05:08:19.783Z,18.50
2018-06-03T05:08:53.094Z,18.50
2018-06-03T05:09:26.381Z,18.50
2018-06-03T05:09:59.659Z,18.50
2018-06-03T05:10:32.939Z,18.50
2018-06-03T05:11:06.279Z,18.50
2018-06-03T05:11:39.560Z,18.50
2018-06-03T05:12:45.927Z,18.60
2018-06-03T05:13:19.181Z,18.60
2018-06-03T05:13:52.461Z,18.60
2018-06-03T05:14:25.763Z,18.60
2018-06-03T05:15:32.099Z,18.60
2018-06-03T05:16:05.845Z,18.60
2018-06-03T05:16:39.125Z,18.60
2018-06-03T05:17:12.379Z,18.60
2018-06-03T05:17:45.706Z,18.60
2018-06-03T05:18:19.080Z,18.60
2018-06-03T05:18:52.425Z,18.60
2018-06-03T05:19:25.737Z,18.60
2018-06-03T05:19:59.037Z,18.60
2018-06-03T05:20:32.367Z,18.60
2018-06-03T05:21:05.717Z,18.60
2018-06-03T05:21:39.041Z,18.60
2018-06-03T05:22:12.348Z,18.60
2018-06-03T05:22:45.661Z,18.60
2018-06-03T05:23:19.021Z,18.60
2018-06-03T05:23:52.341Z,18.60
2018-06-03T05:24:25.693Z,18.50
2018-06-03T05:24:58.996Z,18.50
2018-06-03T05:26:05.381Z,18.50
2018-06-03T05:26:38.989Z,18.50
2018-06-03T05:27:12.271Z,18.50
2018-06-03T05:27:45.744Z,18.50
2018-06-03T05:28:19.059Z,18.50
2018-06-03T05:28:52.363Z,18.50
2018-06-03T05:29:25.748Z,18.50
2018-06-03T05:29:59.049Z,18.50
2018-06-03T05:30:32.307Z,18.50
2018-06-03T05:31:38.633Z,18.60
2018-06-03T05:32:11.895Z,18.60
2018-06-03T05:32:45.199Z,18.60
2018-06-03T05:33:18.522Z,18.60
2018-06-03T05:33:51.825Z,18.60
2018-06-03T05:34:25.118Z,18.60
2018-06-03T05:34:58.413Z,18.60
2018-06-03T05:35:31.719Z,18.60
2018-06-03T05:36:05.046Z,18.70
2018-06-03T05:36:38.351Z,18.70
2018-06-03T05:37:11.993Z,18.70
2018-06-03T05:37:45.261Z,18.70
2018-06-03T05:38:51.643Z,18.80
2018-06-03T05:39:24.932Z,18.80
2018-06-03T05:39:58.279Z,18.80
2018-06-03T05:40:31.561Z,18.80
2018-06-03T05:41:37.955Z,18.90
2018-06-03T05:42:11.259Z,18.90
2018-06-03T05:42:44.883Z,18.90
2018-06-03T05:43:18.164Z,19.00
2018-06-03T05:43:51.485Z,19.00
2018-06-03T05:44:25.086Z,19.00
2018-06-03T05:44:58.401Z,19.00
2018-06-03T05:45:31.717Z,19.00
2018-06-03T05:46:05.013Z,19.00
2018-06-03T05:46:38.311Z,19.10
2018-06-03T05:47:11.589Z,19.10
2018-06-03T05:47:44.905Z,19.10
2018-06-03T05:48:18.205Z,19.10
2018-06-03T05:48:51.566Z,19.20
2018-06-03T05:49:24.847Z,19.20
2018-06-03T05:49:58.181Z,19.20
2018-06-03T05:50:31.449Z,19.20
2018-06-03T05:51:05.021Z,19.30
2018-06-03T05:51:38.347Z,19.30
2018-06-03T05:52:11.658Z,19.30
2018-06-03T05:52:44.961Z,19.30
2018-06-03T05:53:18.263Z,19.30
2018-06-03T05:53:51.587Z,19.30
2018-06-03T05:54:24.935Z,19.30
2018-06-03T05:54:58.253Z,19.40
2018-06-03T05:55:31.909Z,19.40
2018-06-03T05:56:05.185Z,19.40
2018-06-03T05:56:38.465Z,19.40
2018-06-03T05:57:12.103Z,19.40
2018-06-03T05:57:45.419Z,19.40
2018-06-03T05:58:18.682Z,19.30
2018-06-03T05:58:51.995Z,19.30
2018-06-03T05:59:25.241Z,19.30
2018-06-03T06:00:32.077Z,19.20
2018-06-03T06:01:05.708Z,19.20
2018-06-03T06:01:38.989Z,19.20
2018-06-03T06:02:12.271Z,19.20
2018-06-03T06:02:45.515Z,19.20
2018-06-03T06:03:18.783Z,19.20
2018-06-03T06:03:52.072Z,19.20
2018-06-03T06:04:25.345Z,19.20
2018-06-03T06:04:58.639Z,19.20
2018-06-03T06:05:31.943Z,19.20
2018-06-03T06:06:05.273Z,19.20
2018-06-03T06:06:38.608Z,19.20
2018-06-03T06:07:11.915Z,19.20
2018-06-03T06:07:45.191Z,19.30
2018-06-03T06:08:18.585Z,19.30
2018-06-03T06:08:52.235Z,19.30
2018-06-03T06:09:25.549Z,19.30
2018-06-03T06:09:58.857Z,19.30
2018-06-03T06:10:32.194Z,19.30
2018-06-03T06:11:05.475Z,19.20
2018-06-03T06:11:38.793Z,19.30
2018-06-03T06:12:12.135Z,19.30
2018-06-03T06:12:45.417Z,19.40
2018-06-03T06:13:19.043Z,19.40
2018-06-03T06:13:52.437Z,19.50
2018-06-03T06:14:25.735Z,19.50
2018-06-03T06:14:59.031Z,19.50
2018-06-03T06:16:06.281Z,19.60
2018-06-03T06:16:39.592Z,19.60
2018-06-03T06:17:45.914Z,19.70
2018-06-03T06:18:19.225Z,19.70
2018-06-03T06:18:52.577Z,19.70
2018-06-03T06:19:25.889Z,19.70
2018-06-03T06:19:59.249Z,19.70
2018-06-03T06:20:32.609Z,19.70
2018-06-03T06:21:06.057Z,19.70
2018-06-03T06:21:39.376Z,19.70
2018-06-03T06:22:12.722Z,19.70
2018-06-03T06:22:46.035Z,19.70
2018-06-03T06:23:19.359Z,19.70
2018-06-03T06:23:52.651Z,19.80
2018-06-03T06:24:25.945Z,19.70
2018-06-03T06:24:59.281Z,19.80
2018-06-03T06:25:32.569Z,19.80
2018-06-03T06:26:05.876Z,19.80
2018-06-03T06:26:39.576Z,19.90
2018-06-03T06:27:12.979Z,19.90
2018-06-03T06:27:46.277Z,20.00
2018-06-03T06:28:19.581Z,20.00
2018-06-03T06:28:52.901Z,20.00
2018-06-03T06:29:26.260Z,20.00
2018-06-03T06:29:59.700Z,20.00
2018-06-03T06:30:32.998Z,20.10
2018-06-03T06:31:06.441Z,20.10
2018-06-03T06:31:39.730Z,20.10
2018-06-03T06:32:13.366Z,20.10
2018-06-03T06:33:53.022Z,20.20
2018-06-03T06:34:26.352Z,20.20
2018-06-03T06:34:59.644Z,20.20
2018-06-03T06:35:32.981Z,20.30
2018-06-03T06:36:06.304Z,20.30
2018-06-03T06:36:39.614Z,20.30
2018-06-03T06:37:46.004Z,20.30
2018-06-03T06:38:19.287Z,20.30
2018-06-03T06:38:52.556Z,20.30
2018-06-03T06:39:25.891Z,20.20
2018-06-03T06:39:59.196Z,20.20
2018-06-03T06:40:32.845Z,20.20
2018-06-03T06:41:06.485Z,20.10
2018-06-03T06:41:40.136Z,20.10
2018-06-03T06:42:13.552Z,20.10
2018-06-03T06:42:46.871Z,20.10
2018-06-03T06:43:20.122Z,20.10
2018-06-03T06:43:53.406Z,20.10
2018-06-03T06:44:26.733Z,20.20
2018-06-03T06:45:00.021Z,20.20
2018-06-03T06:45:33.326Z,20.20
2018-06-03T06:46:06.985Z,20.20
2018-06-03T06:46:40.288Z,20.20
2018-06-03T06:47:13.589Z,20.20
2018-06-03T06:47:46.897Z,20.10
2018-06-03T06:48:20.169Z,20.20
2018-06-03T06:48:53.492Z,20.20
2018-06-03T06:49:26.837Z,20.20
2018-06-03T06:50:00.158Z,20.10
2018-06-03T06:50:33.445Z,20.10
2018-06-03T06:51:06.725Z,20.10
2018-06-03T06:51:40.008Z,20.10
2018-06-03T06:52:13.304Z,20.10
2018-06-03T06:53:19.653Z,20.20
2018-06-03T06:53:52.959Z,20.20
2018-06-03T06:54:26.279Z,20.20
2018-06-03T06:54:59.570Z,20.20
2018-06-03T06:55:32.871Z,20.20
2018-06-03T06:56:06.493Z,20.20
2018-06-03T06:56:39.765Z,20.20
2018-06-03T06:57:13.057Z,20.20
2018-06-03T06:57:46.351Z,20.30
2018-06-03T06:58:19.667Z,20.30
2018-06-03T06:58:52.968Z,20.30
2018-06-03T06:59:26.301Z,20.30
2018-06-03T06:59:59.991Z,20.30
2018-06-03T07:00:33.661Z,20.40
2018-06-03T07:01:07.347Z,20.40
2018-06-03T07:01:40.651Z,20.40
2018-06-03T07:02:13.981Z,20.40
2018-06-03T07:02:47.882Z,20.40
2018-06-03T07:03:21.182Z,20.40
2018-06-03T07:03:54.485Z,20.50
2018-06-03T07:04:28.025Z,20.50
2018-06-03T07:05:01.303Z,20.50
2018-06-03T07:05:34.593Z,20.60
2018-06-03T07:06:07.883Z,20.60
2018-06-03T07:07:14.787Z,20.60
2018-06-03T07:07:48.077Z,20.60
2018-06-03T07:08:21.373Z,20.60
2018-06-03T07:08:54.722Z,20.60
2018-06-03T07:09:28.088Z,20.60
2018-06-03T07:10:01.467Z,20.60
2018-06-03T07:10:34.779Z,20.70
2018-06-03T07:11:08.090Z,20.70
2018-06-03T07:11:41.422Z,20.70
2018-06-03T07:12:14.725Z,20.70
2018-06-03T07:12:48.036Z,20.70
2018-06-03T07:13:21.346Z,20.70
2018-06-03T07:14:27.748Z,20.80
2018-06-03T07:15:01.323Z,20.80
2018-06-03T07:15:34.602Z,20.80
2018-06-03T07:16:07.880Z,20.80
2018-06-03T07:16:41.246Z,20.80
2018-06-03T07:17:14.575Z,20.80
2018-06-03T07:17:47.879Z,20.80
2018-06-03T07:18:21.171Z,20.80
2018-06-03T07:18:54.461Z,20.90
2018-06-03T07:19:27.763Z,20.90
2018-06-03T07:20:01.050Z,21.00
2018-06-03T07:20:34.391Z,21.00
2018-06-03T07:21:07.695Z,21.00
2018-06-03T07:21:41.044Z,21.10
2018-06-03T07:22:14.354Z,21.10
2018-06-03T07:22:47.653Z,21.20
2018-06-03T07:23:21.042Z,21.20
2018-06-03T07:23:54.475Z,21.30
2018-06-03T07:24:27.779Z,21.30
2018-06-03T07:25:01.068Z,21.30
2018-06-03T07:25:34.424Z,21.30
2018-06-03T07:26:07.778Z,21.30
2018-06-03T07:26:41.107Z,21.40
2018-06-03T07:27:14.455Z,21.40
2018-06-03T07:27:47.745Z,21.40
2018-06-03T07:28:21.061Z,21.50
2018-06-03T07:28:54.393Z,21.50
2018-06-03T07:29:27.715Z,21.60
2018-06-03T07:30:01.044Z,21.60
2018-06-03T07:30:34.397Z,21.60